sensor_id;sensor_type;location;lat;lon;timestamp;P1;durP1;ratioP1;P2;durP2;ratioP2
22152;SDS011;11242;50.536;12.688;2022-08-04T00:03:22;3.38;;;2.70;;
22152;SDS011;11242;50.536;12.688;2022-08-04T00:05:59;3.97;;;2.50;;
22152;SDS011;11242;50.536;12.688;2022-08-04T00:11:23;4.90;;;2.58;;
22152;SDS011;11242;50.536;12.688;2022-08-04T00:13:56;3.17;;;2.30;;
22152;SDS011;11242;50.536;12.688;2022-08-04T00:16:31;2.63;;;2.42;;
22152;SDS011;11242;50.536;12.688;2022-08-04T00:19:00;2.65;;;2.45;;
22152;SDS011;11242;50.536;12.688;2022-08-04T00:21:28;2.85;;;2.65;;
22152;SDS011;11242;50.536;12.688;2022-08-04T00:23:58;3.38;;;2.40;;
22152;SDS011;11242;50.536;12.688;2022-08-04T00:26:26;2.78;;;2.58;;
22152;SDS011;11242;50.536;12.688;2022-08-04T00:28:52;2.97;;;2.53;;
22152;SDS011;11242;50.536;12.688;2022-08-04T00:31:19;4.45;;;2.80;;
22152;SDS011;11242;50.536;12.688;2022-08-04T00:33:46;2.85;;;2.42;;
22152;SDS011;11242;50.536;12.688;2022-08-04T00:36:13;2.65;;;2.45;;
22152;SDS011;11242;50.536;12.688;2022-08-04T00:38:42;3.03;;;2.53;;
22152;SDS011;11242;50.536;12.688;2022-08-04T00:44:02;3.75;;;2.45;;
22152;SDS011;11242;50.536;12.688;2022-08-04T00:46:55;4.60;;;3.30;;
22152;SDS011;11242;50.536;12.688;2022-08-04T00:52:32;3.97;;;3.55;;
22152;SDS011;11242;50.536;12.688;2022-08-04T00:55:02;4.40;;;4.00;;
22152;SDS011;11242;50.536;12.688;2022-08-04T01:01:04;3.92;;;3.63;;
22152;SDS011;11242;50.536;12.688;2022-08-04T01:09:13;4.47;;;4.15;;
22152;SDS011;11242;50.536;12.688;2022-08-04T01:14:34;4.95;;;4.53;;
22152;SDS011;11242;50.536;12.688;2022-08-04T01:17:23;5.75;;;4.15;;
22152;SDS011;11242;50.536;12.688;2022-08-04T01:28:14;4.50;;;4.10;;
22152;SDS011;11242;50.536;12.688;2022-08-04T01:33:22;5.15;;;4.55;;
22152;SDS011;11242;50.536;12.688;2022-08-04T01:35:53;4.10;;;3.80;;
22152;SDS011;11242;50.536;12.688;2022-08-04T01:38:24;4.03;;;3.72;;
22152;SDS011;11242;50.536;12.688;2022-08-04T01:40:55;5.35;;;3.95;;
22152;SDS011;11242;50.536;12.688;2022-08-04T01:43:26;4.30;;;3.90;;
22152;SDS011;11242;50.536;12.688;2022-08-04T01:45:58;4.55;;;3.75;;
22152;SDS011;11242;50.536;12.688;2022-08-04T01:48:26;3.88;;;3.58;;
22152;SDS011;11242;50.536;12.688;2022-08-04T01:50:52;3.97;;;3.63;;
22152;SDS011;11242;50.536;12.688;2022-08-04T01:53:21;4.88;;;3.72;;
22152;SDS011;11242;50.536;12.688;2022-08-04T01:55:53;3.65;;;3.25;;
22152;SDS011;11242;50.536;12.688;2022-08-04T01:58:20;4.07;;;3.22;;
22152;SDS011;11242;50.536;12.688;2022-08-04T02:00:55;3.10;;;2.90;;
22152;SDS011;11242;50.536;12.688;2022-08-04T02:03:26;4.57;;;3.03;;
22152;SDS011;11242;50.536;12.688;2022-08-04T02:05:53;3.45;;;3.13;;
22152;SDS011;11242;50.536;12.688;2022-08-04T02:11:21;3.50;;;3.22;;
22152;SDS011;11242;50.536;12.688;2022-08-04T02:13:55;3.50;;;3.20;;
22152;SDS011;11242;50.536;12.688;2022-08-04T02:16:43;3.63;;;3.30;;
22152;SDS011;11242;50.536;12.688;2022-08-04T02:19:25;5.78;;;3.70;;
22152;SDS011;11242;50.536;12.688;2022-08-04T02:22:05;4.13;;;3.72;;
22152;SDS011;11242;50.536;12.688;2022-08-04T02:24:32;3.35;;;3.03;;
22152;SDS011;11242;50.536;12.688;2022-08-04T02:27:02;4.22;;;3.17;;
22152;SDS011;11242;50.536;12.688;2022-08-04T02:32:20;3.70;;;3.40;;
22152;SDS011;11242;50.536;12.688;2022-08-04T02:35:03;3.70;;;3.40;;
22152;SDS011;11242;50.536;12.688;2022-08-04T02:37:31;3.78;;;3.45;;
22152;SDS011;11242;50.536;12.688;2022-08-04T02:39:58;3.90;;;3.45;;
22152;SDS011;11242;50.536;12.688;2022-08-04T02:42:26;4.15;;;3.83;;
22152;SDS011;11242;50.536;12.688;2022-08-04T02:44:54;4.10;;;3.70;;
22152;SDS011;11242;50.536;12.688;2022-08-04T02:47:23;3.53;;;3.25;;
22152;SDS011;11242;50.536;12.688;2022-08-04T02:49:51;3.60;;;3.30;;
22152;SDS011;11242;50.536;12.688;2022-08-04T02:52:17;3.95;;;3.60;;
22152;SDS011;11242;50.536;12.688;2022-08-04T02:54:44;5.47;;;3.40;;
22152;SDS011;11242;50.536;12.688;2022-08-04T02:57:13;4.45;;;3.40;;
22152;SDS011;11242;50.536;12.688;2022-08-04T03:02:07;5.53;;;3.75;;
22152;SDS011;11242;50.536;12.688;2022-08-04T03:04:49;6.95;;;3.30;;
22152;SDS011;11242;50.536;12.688;2022-08-04T03:16:02;4.15;;;3.30;;
22152;SDS011;11242;50.536;12.688;2022-08-04T03:27:31;5.55;;;3.63;;
22152;SDS011;11242;50.536;12.688;2022-08-04T03:33:36;5.93;;;3.50;;
22152;SDS011;11242;50.536;12.688;2022-08-04T03:36:14;3.00;;;2.80;;
22152;SDS011;11242;50.536;12.688;2022-08-04T03:41:47;4.80;;;3.35;;
22152;SDS011;11242;50.536;12.688;2022-08-04T03:44:52;4.72;;;3.38;;
22152;SDS011;11242;50.536;12.688;2022-08-04T03:50:52;4.43;;;3.70;;
22152;SDS011;11242;50.536;12.688;2022-08-04T04:02:37;15.20;;;4.72;;
22152;SDS011;11242;50.536;12.688;2022-08-04T04:08:11;9.85;;;5.22;;
22152;SDS011;11242;50.536;12.688;2022-08-04T04:14:10;7.65;;;5.97;;
22152;SDS011;11242;50.536;12.688;2022-08-04T04:17:17;6.00;;;5.40;;
22152;SDS011;11242;50.536;12.688;2022-08-04T04:28:54;4.60;;;4.00;;
22152;SDS011;11242;50.536;12.688;2022-08-04T04:31:33;3.97;;;3.63;;
22152;SDS011;11242;50.536;12.688;2022-08-04T04:34:21;4.18;;;3.20;;
22152;SDS011;11242;50.536;12.688;2022-08-04T04:50:03;8.68;;;4.20;;
22152;SDS011;11242;50.536;12.688;2022-08-04T04:52:59;5.28;;;3.90;;
22152;SDS011;11242;50.536;12.688;2022-08-04T04:55:32;6.75;;;3.45;;
22152;SDS011;11242;50.536;12.688;2022-08-04T04:58:03;4.82;;;3.35;;
22152;SDS011;11242;50.536;12.688;2022-08-04T05:00:38;3.92;;;3.10;;
22152;SDS011;11242;50.536;12.688;2022-08-04T05:09:30;3.35;;;2.30;;
22152;SDS011;11242;50.536;12.688;2022-08-04T05:14:48;3.05;;;2.33;;
22152;SDS011;11242;50.536;12.688;2022-08-04T05:17:19;7.10;;;2.30;;
22152;SDS011;11242;50.536;12.688;2022-08-04T05:22:30;5.45;;;2.08;;
22152;SDS011;11242;50.536;12.688;2022-08-04T05:25:12;3.17;;;2.38;;
22152;SDS011;11242;50.536;12.688;2022-08-04T05:27:45;3.97;;;2.08;;
22152;SDS011;11242;50.536;12.688;2022-08-04T05:30:21;2.35;;;1.90;;
22152;SDS011;11242;50.536;12.688;2022-08-04T05:32:54;4.03;;;1.95;;
22152;SDS011;11242;50.536;12.688;2022-08-04T05:35:33;2.78;;;2.13;;
22152;SDS011;11242;50.536;12.688;2022-08-04T05:38:04;2.45;;;2.00;;
22152;SDS011;11242;50.536;12.688;2022-08-04T05:40:31;4.20;;;1.95;;
22152;SDS011;11242;50.536;12.688;2022-08-04T05:42:57;3.20;;;1.70;;
22152;SDS011;11242;50.536;12.688;2022-08-04T05:45:24;2.75;;;2.10;;
22152;SDS011;11242;50.536;12.688;2022-08-04T05:47:51;2.03;;;1.70;;
22152;SDS011;11242;50.536;12.688;2022-08-04T05:50:18;3.10;;;1.80;;
22152;SDS011;11242;50.536;12.688;2022-08-04T05:52:44;3.03;;;1.90;;
22152;SDS011;11242;50.536;12.688;2022-08-04T05:55:11;4.53;;;3.58;;
22152;SDS011;11242;50.536;12.688;2022-08-04T05:57:39;6.43;;;4.60;;
22152;SDS011;11242;50.536;12.688;2022-08-04T06:00:05;2.80;;;2.60;;
22152;SDS011;11242;50.536;12.688;2022-08-04T06:02:33;2.10;;;1.90;;
22152;SDS011;11242;50.536;12.688;2022-08-04T06:05:01;3.92;;;2.22;;
22152;SDS011;11242;50.536;12.688;2022-08-04T06:07:29;1.98;;;1.80;;
22152;SDS011;11242;50.536;12.688;2022-08-04T06:09:55;2.17;;;1.98;;
22152;SDS011;11242;50.536;12.688;2022-08-04T06:12:21;7.53;;;5.45;;
22152;SDS011;11242;50.536;12.688;2022-08-04T06:14:49;9.15;;;8.25;;
22152;SDS011;11242;50.536;12.688;2022-08-04T06:17:23;7.22;;;6.47;;
22152;SDS011;11242;50.536;12.688;2022-08-04T06:19:54;59.38;;;53.28;;
22152;SDS011;11242;50.536;12.688;2022-08-04T06:22:22;45.83;;;41.03;;
22152;SDS011;11242;50.536;12.688;2022-08-04T06:24:49;27.20;;;24.55;;
22152;SDS011;11242;50.536;12.688;2022-08-04T06:27:17;32.08;;;28.88;;
22152;SDS011;11242;50.536;12.688;2022-08-04T06:29:44;7.82;;;7.07;;
22152;SDS011;11242;50.536;12.688;2022-08-04T06:32:10;7.55;;;4.30;;
22152;SDS011;11242;50.536;12.688;2022-08-04T06:34:49;4.78;;;3.20;;
22152;SDS011;11242;50.536;12.688;2022-08-04T06:37:17;3.50;;;2.80;;
22152;SDS011;11242;50.536;12.688;2022-08-04T06:39:44;2.67;;;1.92;;
22152;SDS011;11242;50.536;12.688;2022-08-04T06:42:11;3.22;;;2.33;;
22152;SDS011;11242;50.536;12.688;2022-08-04T06:44:37;3.70;;;2.33;;
22152;SDS011;11242;50.536;12.688;2022-08-04T06:47:04;2.35;;;2.10;;
22152;SDS011;11242;50.536;12.688;2022-08-04T06:49:31;3.42;;;2.40;;
22152;SDS011;11242;50.536;12.688;2022-08-04T06:51:57;2.28;;;2.08;;
22152;SDS011;11242;50.536;12.688;2022-08-04T06:54:26;1.80;;;1.70;;
22152;SDS011;11242;50.536;12.688;2022-08-04T06:56:52;1.55;;;1.42;;
22152;SDS011;11242;50.536;12.688;2022-08-04T06:59:22;1.67;;;1.58;;
22152;SDS011;11242;50.536;12.688;2022-08-04T07:01:49;8.38;;;1.77;;
22152;SDS011;11242;50.536;12.688;2022-08-04T07:04:16;4.30;;;1.30;;
22152;SDS011;11242;50.536;12.688;2022-08-04T07:06:42;3.13;;;1.10;;
22152;SDS011;11242;50.536;12.688;2022-08-04T07:09:08;6.10;;;1.40;;
22152;SDS011;11242;50.536;12.688;2022-08-04T07:11:34;8.48;;;1.55;;
22152;SDS011;11242;50.536;12.688;2022-08-04T07:14:00;34.83;;;3.67;;
22152;SDS011;11242;50.536;12.688;2022-08-04T07:16:28;1.23;;;1.20;;
22152;SDS011;11242;50.536;12.688;2022-08-04T07:18:56;2.58;;;1.40;;
22152;SDS011;11242;50.536;12.688;2022-08-04T07:21:22;127.32;;;8.73;;
22152;SDS011;11242;50.536;12.688;2022-08-04T07:23:49;31.85;;;2.90;;
22152;SDS011;11242;50.536;12.688;2022-08-04T07:26:15;3.08;;;1.33;;
22152;SDS011;11242;50.536;12.688;2022-08-04T07:28:43;5.55;;;1.48;;
22152;SDS011;11242;50.536;12.688;2022-08-04T07:31:10;2.13;;;1.48;;
22152;SDS011;11242;50.536;12.688;2022-08-04T07:33:39;3.17;;;1.60;;
22152;SDS011;11242;50.536;12.688;2022-08-04T07:36:06;5.00;;;1.48;;
22152;SDS011;11242;50.536;12.688;2022-08-04T07:38:32;7.82;;;1.83;;
22152;SDS011;11242;50.536;12.688;2022-08-04T07:40:57;5.25;;;1.65;;
22152;SDS011;11242;50.536;12.688;2022-08-04T07:43:23;3.08;;;1.30;;
22152;SDS011;11242;50.536;12.688;2022-08-04T07:45:51;1.98;;;1.30;;
22152;SDS011;11242;50.536;12.688;2022-08-04T07:48:17;1.42;;;1.20;;
22152;SDS011;11242;50.536;12.688;2022-08-04T07:50:42;2.30;;;1.45;;
22152;SDS011;11242;50.536;12.688;2022-08-04T07:53:09;1.40;;;1.30;;
22152;SDS011;11242;50.536;12.688;2022-08-04T07:55:37;1.40;;;1.30;;
22152;SDS011;11242;50.536;12.688;2022-08-04T07:58:02;1.20;;;1.20;;
22152;SDS011;11242;50.536;12.688;2022-08-04T08:00:28;2.80;;;1.40;;
22152;SDS011;11242;50.536;12.688;2022-08-04T08:02:54;9.18;;;2.15;;
22152;SDS011;11242;50.536;12.688;2022-08-04T08:05:20;2.30;;;1.27;;
22152;SDS011;11242;50.536;12.688;2022-08-04T08:07:47;1.45;;;1.30;;
22152;SDS011;11242;50.536;12.688;2022-08-04T08:10:13;1.38;;;1.30;;
22152;SDS011;11242;50.536;12.688;2022-08-04T08:12:40;3.08;;;1.35;;
22152;SDS011;11242;50.536;12.688;2022-08-04T08:15:06;6.43;;;1.60;;
22152;SDS011;11242;50.536;12.688;2022-08-04T08:17:33;4.85;;;1.40;;
22152;SDS011;11242;50.536;12.688;2022-08-04T08:19:59;7.53;;;1.63;;
22152;SDS011;11242;50.536;12.688;2022-08-04T08:22:25;2.15;;;1.65;;
22152;SDS011;11242;50.536;12.688;2022-08-04T08:24:51;1.83;;;1.38;;
22152;SDS011;11242;50.536;12.688;2022-08-04T08:27:17;2.42;;;1.40;;
22152;SDS011;11242;50.536;12.688;2022-08-04T08:29:42;2.00;;;1.65;;
22152;SDS011;11242;50.536;12.688;2022-08-04T08:32:09;2.38;;;1.60;;
22152;SDS011;11242;50.536;12.688;2022-08-04T08:34:37;3.72;;;1.55;;
22152;SDS011;11242;50.536;12.688;2022-08-04T08:45:58;3.35;;;1.50;;
22152;SDS011;11242;50.536;12.688;2022-08-04T08:51:49;1.60;;;1.50;;
22152;SDS011;11242;50.536;12.688;2022-08-04T09:05:38;2.50;;;1.80;;
22152;SDS011;11242;50.536;12.688;2022-08-04T09:11:12;1.90;;;1.40;;
22152;SDS011;11242;50.536;12.688;2022-08-04T09:13:57;1.67;;;1.58;;
22152;SDS011;11242;50.536;12.688;2022-08-04T09:16:46;5.97;;;1.63;;
22152;SDS011;11242;50.536;12.688;2022-08-04T09:19:28;1.83;;;1.45;;
22152;SDS011;11242;50.536;12.688;2022-08-04T09:22:14;2.33;;;1.70;;
22152;SDS011;11242;50.536;12.688;2022-08-04T09:24:46;2.20;;;1.83;;
22152;SDS011;11242;50.536;12.688;2022-08-04T09:27:14;3.03;;;1.73;;
22152;SDS011;11242;50.536;12.688;2022-08-04T09:30:03;2.10;;;1.80;;
22152;SDS011;11242;50.536;12.688;2022-08-04T09:32:33;3.08;;;1.77;;
22152;SDS011;11242;50.536;12.688;2022-08-04T09:35:21;1.77;;;1.67;;
22152;SDS011;11242;50.536;12.688;2022-08-04T09:43:26;2.67;;;1.85;;
22152;SDS011;11242;50.536;12.688;2022-08-04T09:49:02;2.17;;;1.70;;
22152;SDS011;11242;50.536;12.688;2022-08-04T09:51:42;4.32;;;2.10;;
22152;SDS011;11242;50.536;12.688;2022-08-04T09:57:02;4.80;;;2.20;;
22152;SDS011;11242;50.536;12.688;2022-08-04T09:59:41;3.20;;;2.00;;
22152;SDS011;11242;50.536;12.688;2022-08-04T10:02:13;2.30;;;2.10;;
22152;SDS011;11242;50.536;12.688;2022-08-04T10:04:42;3.78;;;2.38;;
22152;SDS011;11242;50.536;12.688;2022-08-04T10:07:23;2.40;;;2.30;;
22152;SDS011;11242;50.536;12.688;2022-08-04T10:13:08;6.75;;;2.40;;
22152;SDS011;11242;50.536;12.688;2022-08-04T10:26:26;2.60;;;2.38;;
22152;SDS011;11242;50.536;12.688;2022-08-04T10:29:09;2.40;;;2.20;;
22152;SDS011;11242;50.536;12.688;2022-08-04T10:31:41;2.30;;;2.10;;
22152;SDS011;11242;50.536;12.688;2022-08-04T10:34:11;2.58;;;2.20;;
22152;SDS011;11242;50.536;12.688;2022-08-04T10:39:37;2.75;;;2.35;;
22152;SDS011;11242;50.536;12.688;2022-08-04T10:42:28;3.78;;;2.42;;
22152;SDS011;11242;50.536;12.688;2022-08-04T10:47:44;3.40;;;2.20;;
22152;SDS011;11242;50.536;12.688;2022-08-04T10:50:26;3.50;;;2.08;;
22152;SDS011;11242;50.536;12.688;2022-08-04T10:52:57;2.70;;;2.50;;
22152;SDS011;11242;50.536;12.688;2022-08-04T10:55:34;3.08;;;2.22;;
22152;SDS011;11242;50.536;12.688;2022-08-04T10:58:05;2.70;;;1.90;;
22152;SDS011;11242;50.536;12.688;2022-08-04T11:00:37;2.10;;;2.00;;
22152;SDS011;11242;50.536;12.688;2022-08-04T11:05:44;2.30;;;2.10;;
22152;SDS011;11242;50.536;12.688;2022-08-04T11:08:17;2.40;;;2.10;;
22152;SDS011;11242;50.536;12.688;2022-08-04T11:11:00;3.00;;;2.15;;
22152;SDS011;11242;50.536;12.688;2022-08-04T11:13:34;3.08;;;1.90;;
22152;SDS011;11242;50.536;12.688;2022-08-04T11:16:08;2.78;;;2.42;;
22152;SDS011;11242;50.536;12.688;2022-08-04T11:18:48;1.98;;;1.88;;
22152;SDS011;11242;50.536;12.688;2022-08-04T11:21:31;3.45;;;2.30;;
22152;SDS011;11242;50.536;12.688;2022-08-04T11:24:15;4.82;;;2.38;;
22152;SDS011;11242;50.536;12.688;2022-08-04T11:26:44;3.10;;;2.35;;
22152;SDS011;11242;50.536;12.688;2022-08-04T11:32:01;2.35;;;2.22;;
22152;SDS011;11242;50.536;12.688;2022-08-04T11:34:29;3.08;;;2.10;;
22152;SDS011;11242;50.536;12.688;2022-08-04T11:37:05;2.40;;;2.20;;
22152;SDS011;11242;50.536;12.688;2022-08-04T11:39:48;2.80;;;2.60;;
22152;SDS011;11242;50.536;12.688;2022-08-04T11:42:24;2.88;;;2.10;;
22152;SDS011;11242;50.536;12.688;2022-08-04T11:44:59;2.38;;;2.05;;
22152;SDS011;11242;50.536;12.688;2022-08-04T11:47:29;2.60;;;2.40;;
22152;SDS011;11242;50.536;12.688;2022-08-04T11:50:10;3.40;;;2.47;;
22152;SDS011;11242;50.536;12.688;2022-08-04T11:52:53;2.25;;;2.05;;
22152;SDS011;11242;50.536;12.688;2022-08-04T11:55:20;2.78;;;2.30;;
22152;SDS011;11242;50.536;12.688;2022-08-04T11:57:49;2.08;;;1.98;;
22152;SDS011;11242;50.536;12.688;2022-08-04T12:00:15;2.45;;;2.28;;
22152;SDS011;11242;50.536;12.688;2022-08-04T12:11:51;3.15;;;2.10;;
22152;SDS011;11242;50.536;12.688;2022-08-04T12:14:48;3.80;;;2.35;;
22152;SDS011;11242;50.536;12.688;2022-08-04T12:17:21;2.30;;;2.10;;
22152;SDS011;11242;50.536;12.688;2022-08-04T12:19:56;2.60;;;2.28;;
22152;SDS011;11242;50.536;12.688;2022-08-04T12:22:26;2.30;;;2.20;;
22152;SDS011;11242;50.536;12.688;2022-08-04T12:24:58;2.35;;;2.00;;
22152;SDS011;11242;50.536;12.688;2022-08-04T12:30:08;2.38;;;2.10;;
22152;SDS011;11242;50.536;12.688;2022-08-04T12:32:37;2.38;;;2.17;;
22152;SDS011;11242;50.536;12.688;2022-08-04T12:35:08;4.60;;;2.47;;
22152;SDS011;11242;50.536;12.688;2022-08-04T12:40:28;4.85;;;2.70;;
22152;SDS011;11242;50.536;12.688;2022-08-04T12:45:45;2.60;;;2.40;;
22152;SDS011;11242;50.536;12.688;2022-08-04T12:48:15;2.80;;;2.20;;
22152;SDS011;11242;50.536;12.688;2022-08-04T12:50:45;2.45;;;2.25;;
22152;SDS011;11242;50.536;12.688;2022-08-04T12:53:12;2.55;;;2.35;;
22152;SDS011;11242;50.536;12.688;2022-08-04T12:55:43;3.95;;;2.22;;
22152;SDS011;11242;50.536;12.688;2022-08-04T12:58:25;2.47;;;2.20;;
22152;SDS011;11242;50.536;12.688;2022-08-04T13:00:55;2.63;;;2.42;;
22152;SDS011;11242;50.536;12.688;2022-08-04T13:03:26;2.42;;;2.33;;
22152;SDS011;11242;50.536;12.688;2022-08-04T13:05:53;2.20;;;2.10;;
22152;SDS011;11242;50.536;12.688;2022-08-04T13:08:19;6.63;;;2.63;;
22152;SDS011;11242;50.536;12.688;2022-08-04T13:10:47;3.55;;;2.50;;
22152;SDS011;11242;50.536;12.688;2022-08-04T13:13:18;2.85;;;2.30;;
22152;SDS011;11242;50.536;12.688;2022-08-04T13:15:55;4.03;;;2.25;;
22152;SDS011;11242;50.536;12.688;2022-08-04T13:18:26;2.50;;;2.30;;
22152;SDS011;11242;50.536;12.688;2022-08-04T13:20:53;3.33;;;2.30;;
22152;SDS011;11242;50.536;12.688;2022-08-04T13:23:21;2.42;;;2.22;;
22152;SDS011;11242;50.536;12.688;2022-08-04T13:25:52;2.40;;;2.30;;
22152;SDS011;11242;50.536;12.688;2022-08-04T13:28:23;2.42;;;2.20;;
22152;SDS011;11242;50.536;12.688;2022-08-04T13:30:55;2.75;;;2.25;;
22152;SDS011;11242;50.536;12.688;2022-08-04T13:33:27;3.40;;;2.25;;
22152;SDS011;11242;50.536;12.688;2022-08-04T13:35:55;3.50;;;2.45;;
22152;SDS011;11242;50.536;12.688;2022-08-04T13:38:23;2.47;;;2.35;;
22152;SDS011;11242;50.536;12.688;2022-08-04T13:40:51;2.65;;;2.47;;
22152;SDS011;11242;50.536;12.688;2022-08-04T13:43:27;3.88;;;2.58;;
22152;SDS011;11242;50.536;12.688;2022-08-04T13:45:59;3.28;;;2.97;;
22152;SDS011;11242;50.536;12.688;2022-08-04T13:48:35;2.97;;;2.67;;
22152;SDS011;11242;50.536;12.688;2022-08-04T13:51:03;4.18;;;2.38;;
22152;SDS011;11242;50.536;12.688;2022-08-04T13:53:31;2.83;;;2.58;;
22152;SDS011;11242;50.536;12.688;2022-08-04T13:55:58;5.28;;;2.45;;
22152;SDS011;11242;50.536;12.688;2022-08-04T13:58:25;2.78;;;2.40;;
22152;SDS011;11242;50.536;12.688;2022-08-04T14:00:58;2.40;;;2.20;;
22152;SDS011;11242;50.536;12.688;2022-08-04T14:03:38;4.00;;;2.58;;
22152;SDS011;11242;50.536;12.688;2022-08-04T14:06:15;2.58;;;2.42;;
22152;SDS011;11242;50.536;12.688;2022-08-04T14:08:56;3.22;;;2.90;;
22152;SDS011;11242;50.536;12.688;2022-08-04T14:11:34;4.90;;;2.97;;
22152;SDS011;11242;50.536;12.688;2022-08-04T14:19:51;5.10;;;2.75;;
22152;SDS011;11242;50.536;12.688;2022-08-04T14:24:56;11.60;;;3.05;;
22152;SDS011;11242;50.536;12.688;2022-08-04T14:27:39;7.85;;;2.67;;
22152;SDS011;11242;50.536;12.688;2022-08-04T14:30:20;4.53;;;2.70;;
22152;SDS011;11242;50.536;12.688;2022-08-04T14:33:06;8.20;;;2.90;;
22152;SDS011;11242;50.536;12.688;2022-08-04T14:35:33;4.45;;;2.75;;
22152;SDS011;11242;50.536;12.688;2022-08-04T14:38:02;3.20;;;2.90;;
22152;SDS011;11242;50.536;12.688;2022-08-04T14:40:33;6.68;;;2.63;;
22152;SDS011;11242;50.536;12.688;2022-08-04T14:43:03;4.05;;;2.70;;
22152;SDS011;11242;50.536;12.688;2022-08-04T14:45:34;3.10;;;2.90;;
22152;SDS011;11242;50.536;12.688;2022-08-04T14:48:13;3.92;;;2.72;;
22152;SDS011;11242;50.536;12.688;2022-08-04T14:50:48;3.80;;;2.75;;
22152;SDS011;11242;50.536;12.688;2022-08-04T14:53:22;3.72;;;2.80;;
22152;SDS011;11242;50.536;12.688;2022-08-04T14:55:55;2.90;;;2.70;;
22152;SDS011;11242;50.536;12.688;2022-08-04T14:58:24;9.30;;;3.28;;
22152;SDS011;11242;50.536;12.688;2022-08-04T15:00:55;3.97;;;3.17;;
22152;SDS011;11242;50.536;12.688;2022-08-04T15:03:22;4.18;;;3.42;;
22152;SDS011;11242;50.536;12.688;2022-08-04T15:05:49;4.03;;;2.90;;
22152;SDS011;11242;50.536;12.688;2022-08-04T15:08:18;3.83;;;3.08;;
22152;SDS011;11242;50.536;12.688;2022-08-04T15:10:45;6.25;;;2.75;;
22152;SDS011;11242;50.536;12.688;2022-08-04T15:13:10;3.63;;;2.70;;
22152;SDS011;11242;50.536;12.688;2022-08-04T15:15:38;2.95;;;2.75;;
22152;SDS011;11242;50.536;12.688;2022-08-04T15:18:08;2.90;;;2.63;;
22152;SDS011;11242;50.536;12.688;2022-08-04T15:20:35;3.10;;;2.90;;
22152;SDS011;11242;50.536;12.688;2022-08-04T15:23:02;17.45;;;4.40;;
22152;SDS011;11242;50.536;12.688;2022-08-04T15:25:39;11.00;;;3.85;;
22152;SDS011;11242;50.536;12.688;2022-08-04T15:28:12;7.68;;;2.70;;
22152;SDS011;11242;50.536;12.688;2022-08-04T15:30:40;8.40;;;3.60;;
22152;SDS011;11242;50.536;12.688;2022-08-04T15:33:09;2.90;;;2.63;;
22152;SDS011;11242;50.536;12.688;2022-08-04T15:35:39;2.90;;;2.70;;
22152;SDS011;11242;50.536;12.688;2022-08-04T15:38:08;4.57;;;2.70;;
22152;SDS011;11242;50.536;12.688;2022-08-04T15:43:39;4.53;;;2.65;;
22152;SDS011;11242;50.536;12.688;2022-08-04T15:46:11;4.38;;;2.53;;
22152;SDS011;11242;50.536;12.688;2022-08-04T15:48:37;3.17;;;2.78;;
22152;SDS011;11242;50.536;12.688;2022-08-04T15:51:07;2.60;;;2.40;;
22152;SDS011;11242;50.536;12.688;2022-08-04T15:56:04;5.10;;;3.30;;
22152;SDS011;11242;50.536;12.688;2022-08-04T15:58:49;3.28;;;3.05;;
22152;SDS011;11242;50.536;12.688;2022-08-04T16:01:16;5.80;;;3.78;;
22152;SDS011;11242;50.536;12.688;2022-08-04T16:03:43;4.38;;;3.03;;
22152;SDS011;11242;50.536;12.688;2022-08-04T16:19:24;4.65;;;2.75;;
22152;SDS011;11242;50.536;12.688;2022-08-04T16:22:10;3.15;;;2.85;;
22152;SDS011;11242;50.536;12.688;2022-08-04T16:24:54;3.92;;;2.60;;
22152;SDS011;11242;50.536;12.688;2022-08-04T16:27:20;4.85;;;2.70;;
22152;SDS011;11242;50.536;12.688;2022-08-04T16:30:04;5.35;;;3.00;;
22152;SDS011;11242;50.536;12.688;2022-08-04T16:32:40;5.00;;;3.40;;
22152;SDS011;11242;50.536;12.688;2022-08-04T16:35:26;6.47;;;3.30;;
22152;SDS011;11242;50.536;12.688;2022-08-04T16:37:53;6.72;;;2.90;;
22152;SDS011;11242;50.536;12.688;2022-08-04T16:40:36;5.80;;;2.75;;
22152;SDS011;11242;50.536;12.688;2022-08-04T16:45:41;4.18;;;2.90;;
22152;SDS011;11242;50.536;12.688;2022-08-04T16:48:22;3.08;;;2.88;;
22152;SDS011;11242;50.536;12.688;2022-08-04T16:50:57;5.75;;;3.00;;
22152;SDS011;11242;50.536;12.688;2022-08-04T16:56:09;2.85;;;2.53;;
22152;SDS011;11242;50.536;12.688;2022-08-04T16:58:38;3.58;;;2.90;;
22152;SDS011;11242;50.536;12.688;2022-08-04T17:01:07;3.13;;;2.78;;
22152;SDS011;11242;50.536;12.688;2022-08-04T17:03:38;3.75;;;2.95;;
22152;SDS011;11242;50.536;12.688;2022-08-04T17:06:10;3.33;;;3.08;;
22152;SDS011;11242;50.536;12.688;2022-08-04T17:08:38;3.08;;;2.80;;
22152;SDS011;11242;50.536;12.688;2022-08-04T17:11:11;7.55;;;3.10;;
22152;SDS011;11242;50.536;12.688;2022-08-04T17:13:38;3.03;;;2.80;;
22152;SDS011;11242;50.536;12.688;2022-08-04T17:16:06;3.45;;;3.13;;
22152;SDS011;11242;50.536;12.688;2022-08-04T17:18:40;3.35;;;2.95;;
22152;SDS011;11242;50.536;12.688;2022-08-04T17:21:09;3.65;;;3.30;;
22152;SDS011;11242;50.536;12.688;2022-08-04T17:26:11;3.65;;;3.35;;
22152;SDS011;11242;50.536;12.688;2022-08-04T17:28:39;3.88;;;3.58;;
22152;SDS011;11242;50.536;12.688;2022-08-04T17:31:09;4.60;;;4.05;;
22152;SDS011;11242;50.536;12.688;2022-08-04T17:33:36;5.80;;;3.20;;
22152;SDS011;11242;50.536;12.688;2022-08-04T17:36:03;8.57;;;3.50;;
22152;SDS011;11242;50.536;12.688;2022-08-04T17:41:19;8.10;;;3.15;;
22152;SDS011;11242;50.536;12.688;2022-08-04T17:43:55;3.67;;;3.30;;
22152;SDS011;11242;50.536;12.688;2022-08-04T17:46:36;8.70;;;4.55;;
22152;SDS011;11242;50.536;12.688;2022-08-04T17:51:45;6.72;;;3.80;;
22152;SDS011;11242;50.536;12.688;2022-08-04T17:54:12;5.80;;;4.28;;
22152;SDS011;11242;50.536;12.688;2022-08-04T17:56:43;4.35;;;3.88;;
22152;SDS011;11242;50.536;12.688;2022-08-04T17:59:12;5.35;;;3.70;;
22152;SDS011;11242;50.536;12.688;2022-08-04T18:01:59;5.55;;;3.80;;
22152;SDS011;11242;50.536;12.688;2022-08-04T18:09:40;5.15;;;4.20;;
22152;SDS011;11242;50.536;12.688;2022-08-04T18:12:20;5.13;;;3.78;;
22152;SDS011;11242;50.536;12.688;2022-08-04T18:14:56;7.90;;;4.13;;
22152;SDS011;11242;50.536;12.688;2022-08-04T18:17:34;4.45;;;3.95;;
22152;SDS011;11242;50.536;12.688;2022-08-04T18:20:07;4.70;;;3.83;;
22152;SDS011;11242;50.536;12.688;2022-08-04T18:22:36;7.22;;;3.83;;
22152;SDS011;11242;50.536;12.688;2022-08-04T18:25:02;4.25;;;3.83;;
22152;SDS011;11242;50.536;12.688;2022-08-04T18:27:29;5.07;;;4.22;;
22152;SDS011;11242;50.536;12.688;2022-08-04T18:29:56;6.78;;;6.15;;
22152;SDS011;11242;50.536;12.688;2022-08-04T18:32:22;6.93;;;5.35;;
22152;SDS011;11242;50.536;12.688;2022-08-04T18:34:50;5.82;;;4.40;;
22152;SDS011;11242;50.536;12.688;2022-08-04T18:37:16;6.07;;;3.95;;
22152;SDS011;11242;50.536;12.688;2022-08-04T18:39:42;3.83;;;3.53;;
22152;SDS011;11242;50.536;12.688;2022-08-04T18:42:08;4.25;;;3.92;;
22152;SDS011;11242;50.536;12.688;2022-08-04T18:44:34;3.72;;;3.53;;
22152;SDS011;11242;50.536;12.688;2022-08-04T18:47:00;4.93;;;3.70;;
22152;SDS011;11242;50.536;12.688;2022-08-04T18:49:26;4.35;;;3.80;;
22152;SDS011;11242;50.536;12.688;2022-08-04T18:51:52;4.00;;;3.60;;
22152;SDS011;11242;50.536;12.688;2022-08-04T18:54:19;4.60;;;3.50;;
22152;SDS011;11242;50.536;12.688;2022-08-04T18:56:46;7.10;;;3.65;;
22152;SDS011;11242;50.536;12.688;2022-08-04T18:59:13;4.00;;;3.60;;
22152;SDS011;11242;50.536;12.688;2022-08-04T19:01:39;4.00;;;3.60;;
22152;SDS011;11242;50.536;12.688;2022-08-04T19:04:05;4.35;;;3.90;;